Airfield :
LOGIN :

Register | Disclaimer

   EN    FR    IT 

 










Legend :    VFR   Marginal VFR   IFR   Intensive IFR   Very Intensive IFR
Visi :
Ceiling :
>= 8 km
>= 3000ft
5 to 8 km
1000 to 3000 ft
1500m to 5 km
500 to 1000 ft
800 to 1500m
200 to 500 ft
< 800m
< 200 ft
Symbols :   Thunderstorms  Fog  Heavy snow  Heavy precipitations  Wind > 20 kt
SIGMETs :     Misc.  Thunderstorms  Icing  Turbulence  Mountain Waves  Volcanic Ashes






- Airport Elevation : 18 ft
- IATA code : AJA


LFKJ - Ajaccio

CURRENT METAR :
  • 171900Z AUTO 06005KT 9999 -RA SCT019/// BKN025/// BKN031/// ///CB 12/10 Q1025 TEMPO VRB15G30KT TSRA

EXPIRED METARs :
  • 171830Z AUTO 01005KT 340V040 9999 BKN017/// OVC022/// ///TCU 12/10 Q1025 TEMPO VRB15G30KT TSRA FEW025CB BKN030
  • 171800Z AUTO 09003KT 050V140 9000 RA BKN025/// BKN030/// BKN041/// ///CB 13/10 Q1026 TEMPO VRB15G30KT TSRA
  • 171730Z AUTO 06002KT 9999 BKN037 OVC050 13/09 Q1026 TEMPO VRB15G30KT TSRA FEW025CB BKN030
  • 171700Z AUTO 09002KT 9999 SCT042 OVC052 13/09 Q1026 TEMPO VRB15G30KT TSRA FEW025CB BKN030
  • 171630Z AUTO VRB02KT 9999 SCT043 OVC050 14/10 Q1026 TEMPO VRB15G30KT TSRA FEW025CB BKN030

TAF TAF LFKJ
Valid from the 17 at 15:00 until the 18 at 15:00 UTC


171400Z 1715/1815 24006KT 9999 SCT020 BKN040
BECMG 1716/1718 21012KT RA BKN020 BKN030
TEMPO 1715/1802 VRB15G30KT TSRA FEW025CB BKN030
BECMG 1722/1724 28010G20KT NSC
ATIS : +33 4 95 23 59 85



MET'MAP, your aeronautical weather chart ! - Copyright ORBIFLY December 2007 - Disclaimer

ORBIFLY MET'MAP TEAM :

Programming & Development : Alexandra Zaïnal
Concept & original design : Baudouin d'Aumeries
Assistance for programming : Marc-Olivier Méhu
Technical & hardware support : Manuel Goepfert

Contact : metmap@orbifly.com




SOURCES & CREDITS :

   NOAA